Time;durP1;ratioP1;P1;durP2;ratioP2;P2;SDS_P1;SDS_P2;PMS_P1;PMS_P2;Temp;Humidity;BMP_temperature;BMP_pressure;BME280_temperature;BME280_humidity;BME280_pressure;Samples;Min_cycle;Max_cycle;Signal;HPM_P1;HPM_P2
2022/06/15 00:01:29;;;;;;;7.82;4.80;;;;;;;;;;10276338;28;20440;-62
2022/06/15 00:06:29;;;;;;;8.98;4.60;;;;;;;;;;10276772;28;20430;-61
2022/06/15 00:11:28;;;;;;;11.88;4.93;;;;;;;;;;10274992;28;20079;-61
2022/06/15 00:16:27;;;;;;;8.57;4.93;;;;;;;;;;10271711;28;20072;-61
2022/06/15 00:21:27;;;;;;;7.10;4.90;;;;;;;;;;10274067;28;20091;-62
2022/06/15 00:26:25;;;;;;;8.32;4.75;;;;;;;;;;10275540;28;20045;-62
2022/06/15 00:31:24;;;;;;;9.93;5.03;;;;;;;;;;10278497;28;20072;-61
2022/06/15 00:36:23;;;;;;;9.45;5.28;;;;;;;;;;10285018;28;20072;-62
2022/06/15 00:41:24;;;;;;;13.45;5.43;;;;;;;;;;10275645;28;20049;-62
2022/06/15 00:46:24;;;;;;;10.15;4.95;;;;;;;;;;10274056;28;20048;-62
2022/06/15 00:51:24;;;;;;;6.43;4.63;;;;;;;;;;10275368;28;20080;-63
2022/06/15 00:56:24;;;;;;;13.25;5.75;;;;;;;;;;10274689;28;20068;-62
2022/06/15 01:01:22;;;;;;;6.03;5.20;;;;;;;;;;10275584;28;20049;-63
2022/06/15 01:06:26;;;;;;;6.72;4.88;;;;;;;;;;10275463;28;20052;-62
2022/06/15 01:11:32;;;;;;;7.53;5.18;;;;;;;;;;10275242;28;20182;-62
2022/06/15 01:16:37;;;;;;;6.57;4.50;;;;;;;;;;10273978;28;20052;-62
2022/06/15 01:21:38;;;;;;;5.78;4.38;;;;;;;;;;10274800;28;20056;-62
2022/06/15 01:26:51;;;;;;;7.60;4.05;;;;;;;;;;10274392;28;20053;-62
2022/06/15 01:31:55;;;;;;;12.68;3.83;;;;;;;;;;10281876;28;20092;-62
2022/06/15 01:37:08;;;;;;;4.10;3.28;;;;;;;;;;10282542;28;20514;-62
2022/06/15 01:42:10;;;;;;;7.00;3.60;;;;;;;;;;10282370;28;20041;-63
2022/06/15 01:47:12;;;;;;;6.07;3.35;;;;;;;;;;10281119;28;20053;-63
2022/06/15 01:52:13;;;;;;;4.15;3.42;;;;;;;;;;10280511;28;20540;-63
2022/06/15 01:57:14;;;;;;;6.47;3.55;;;;;;;;;;10280538;28;20041;-63
2022/06/15 02:02:15;;;;;;;6.90;4.28;;;;;;;;;;10297199;28;20414;-63
2022/06/15 02:07:21;;;;;;;7.47;3.50;;;;;;;;;;10281474;28;20514;-63
2022/06/15 02:12:22;;;;;;;7.38;3.55;;;;;;;;;;10296328;28;20093;-63
2022/06/15 02:17:25;;;;;;;5.35;3.35;;;;;;;;;;10281057;28;20116;-63
2022/06/15 02:22:24;;;;;;;4.57;3.25;;;;;;;;;;10279475;28;20064;-62
2022/06/15 02:27:25;;;;;;;7.20;3.33;;;;;;;;;;10296495;28;20053;-61
2022/06/15 02:32:26;;;;;;;4.75;3.40;;;;;;;;;;10295877;28;20079;-64
2022/06/15 02:37:24;;;;;;;4.13;3.15;;;;;;;;;;10280177;28;20049;-63
2022/06/15 02:42:26;;;;;;;11.80;3.00;;;;;;;;;;10277765;28;20055;-63
2022/06/15 02:47:32;;;;;;;6.45;3.60;;;;;;;;;;10295091;28;20434;-63
2022/06/15 02:52:32;;;;;;;5.68;2.90;;;;;;;;;;10278119;28;20080;-63
2022/06/15 02:57:41;;;;;;;3.13;2.83;;;;;;;;;;10294903;28;20060;-63
2022/06/15 03:02:42;;;;;;;5.00;2.92;;;;;;;;;;10294798;28;20049;-63
2022/06/15 03:07:41;;;;;;;7.40;3.47;;;;;;;;;;10279060;28;20037;-63
2022/06/15 03:12:42;;;;;;;6.30;3.22;;;;;;;;;;10294034;28;20049;-63
2022/06/15 03:17:43;;;;;;;4.78;2.70;;;;;;;;;;10293783;28;20065;-63
2022/06/15 03:22:44;;;;;;;5.25;2.75;;;;;;;;;;10277001;28;20065;-63
2022/06/15 03:27:50;;;;;;;7.80;3.50;;;;;;;;;;10293508;28;20056;-63
2022/06/15 03:32:52;;;;;;;6.57;3.10;;;;;;;;;;10293344;28;20064;-64
2022/06/15 03:37:51;;;;;;;6.97;3.08;;;;;;;;;;10276506;28;20052;-62
2022/06/15 03:42:56;;;;;;;13.20;3.30;;;;;;;;;;10292758;28;20507;-63
2022/06/15 03:47:58;;;;;;;4.75;2.92;;;;;;;;;;10292813;28;20045;-63
2022/06/15 03:52:56;;;;;;;9.43;3.38;;;;;;;;;;10275257;28;20100;-63
2022/06/15 03:57:58;;;;;;;6.85;3.85;;;;;;;;;;10275946;28;20057;-62
2022/06/15 04:02:58;;;;;;;9.82;3.20;;;;;;;;;;10275919;28;20049;-63
2022/06/15 04:08:42;;;;;;;10.15;3.60;;;;;;;;;;10282115;28;20083;-63
2022/06/15 04:13:48;;;;;;;4.57;2.83;;;;;;;;;;10275382;28;20052;-63
2022/06/15 04:18:48;;;;;;;6.72;3.80;;;;;;;;;;10275209;28;20049;-63
2022/06/15 04:23:48;;;;;;;8.90;3.58;;;;;;;;;;10275077;28;20069;-64
2022/06/15 04:28:47;;;;;;;5.32;3.08;;;;;;;;;;10291645;28;20049;-64
2022/06/15 04:33:50;;;;;;;9.30;5.13;;;;;;;;;;10274789;28;20079;-64
2022/06/15 04:38:52;;;;;;;10.93;5.38;;;;;;;;;;10274309;28;20136;-64
2022/06/15 04:44:00;;;;;;;8.02;3.67;;;;;;;;;;10274664;28;20063;-63
2022/06/15 04:49:00;;;;;;;9.38;5.03;;;;;;;;;;10280250;28;20099;-63
2022/06/15 04:54:10;;;;;;;10.55;5.90;;;;;;;;;;10273806;28;20049;-62
2022/06/15 04:59:15;;;;;;;9.98;4.25;;;;;;;;;;10272865;28;20060;-64
2022/06/15 05:04:18;;;;;;;7.93;4.05;;;;;;;;;;10277759;28;20068;-63
2022/06/15 05:09:16;;;;;;;4.85;3.75;;;;;;;;;;10283287;28;20059;-64
2022/06/15 05:14:18;;;;;;;5.43;3.78;;;;;;;;;;10281399;28;20080;-62
2022/06/15 05:19:21;;;;;;;7.15;5.25;;;;;;;;;;10282063;28;20059;-62
2022/06/15 05:24:21;;;;;;;5.55;4.35;;;;;;;;;;10281446;28;20099;-62
2022/06/15 05:29:27;;;;;;;6.00;4.22;;;;;;;;;;10281028;28;20045;-62
2022/06/15 05:34:37;;;;;;;6.65;3.65;;;;;;;;;;10280783;28;20096;-62
2022/06/15 05:39:36;;;;;;;4.97;4.05;;;;;;;;;;10280691;28;20084;-63
2022/06/15 05:49:50;;;;;;;10.30;4.10;;;;;;;;;;10280540;28;20044;-63
2022/06/15 05:54:58;;;;;;;6.95;3.92;;;;;;;;;;10279932;28;20403;-63
2022/06/15 05:59:57;;;;;;;4.18;3.28;;;;;;;;;;10281487;28;20037;-62
2022/06/15 06:04:57;;;;;;;5.32;3.05;;;;;;;;;;10280906;28;20061;-61
2022/06/15 06:09:55;;;;;;;5.28;3.28;;;;;;;;;;10280898;28;20045;-61
2022/06/15 06:14:53;;;;;;;4.45;3.83;;;;;;;;;;10279226;28;20079;-62
2022/06/15 06:19:52;;;;;;;12.10;3.95;;;;;;;;;;10277642;28;20085;-63
2022/06/15 06:24:52;;;;;;;8.23;4.00;;;;;;;;;;10280376;28;20057;-62
2022/06/15 06:29:50;;;;;;;4.53;3.55;;;;;;;;;;10279997;28;20037;-61
2022/06/15 06:34:48;;;;;;;12.80;4.55;;;;;;;;;;10279311;28;20091;-63
2022/06/15 06:39:47;;;;;;;7.05;4.75;;;;;;;;;;10278061;28;20057;-63
2022/06/15 06:44:46;;;;;;;8.45;4.18;;;;;;;;;;10279789;28;20045;-63
2022/06/15 06:49:45;;;;;;;11.20;7.15;;;;;;;;;;10277867;28;20033;-63
2022/06/15 06:54:43;;;;;;;7.07;3.67;;;;;;;;;;10274962;28;20072;-63
2022/06/15 06:59:41;;;;;;;8.00;3.47;;;;;;;;;;10273769;28;20533;-63
2022/06/15 07:04:41;;;;;;;9.70;4.90;;;;;;;;;;10275790;28;20088;-64
2022/06/15 07:09:39;;;;;;;6.30;3.20;;;;;;;;;;10278048;28;20060;-64
2022/06/15 07:14:37;;;;;;;7.95;3.90;;;;;;;;;;10278479;28;20084;-63
2022/06/15 07:19:36;;;;;;;3.50;2.90;;;;;;;;;;10277206;28;20088;-62
2022/06/15 07:24:35;;;;;;;8.57;3.67;;;;;;;;;;10277642;28;20053;-63
2022/06/15 07:29:34;;;;;;;9.43;4.95;;;;;;;;;;10290555;28;20469;-63
2022/06/15 07:34:32;;;;;;;6.30;4.63;;;;;;;;;;10274909;28;20068;-63
2022/06/15 07:39:31;;;;;;;6.20;3.17;;;;;;;;;;10273338;28;20584;-63
2022/06/15 07:44:35;;;;;;;5.47;2.60;;;;;;;;;;10273472;28;20107;-63
2022/06/15 07:55:01;;;;;;;23.67;17.60;;;;;;;;;;10272671;28;20099;-63
2022/06/15 08:00:01;;;;;;;12.35;8.45;;;;;;;;;;10271668;28;20087;-63
2022/06/15 08:05:09;;;;;;;7.30;3.70;;;;;;;;;;10273348;28;20091;-63
2022/06/15 08:10:09;;;;;;;7.32;3.75;;;;;;;;;;10276185;28;20087;-63
2022/06/15 08:15:10;;;;;;;4.55;3.67;;;;;;;;;;10276076;28;20092;-63
2022/06/15 08:20:10;;;;;;;7.63;4.50;;;;;;;;;;10276055;28;20048;-63
2022/06/15 08:25:10;;;;;;;8.35;4.93;;;;;;;;;;10276621;28;20045;-63
2022/06/15 08:30:11;;;;;;;4.47;3.88;;;;;;;;;;10276211;28;20048;-63
2022/06/15 08:35:10;;;;;;;6.18;3.38;;;;;;;;;;10276525;28;20103;-63
2022/06/15 08:40:09;;;;;;;6.25;3.80;;;;;;;;;;10274924;28;20045;-63
2022/06/15 08:45:12;;;;;;;7.70;4.82;;;;;;;;;;10275659;28;20048;-63
2022/06/15 08:50:16;;;;;;;8.00;5.20;;;;;;;;;;10275627;28;20073;-63
2022/06/15 08:55:19;;;;;;;5.93;3.27;;;;;;;;;;10275262;28;20084;-63
2022/06/15 09:00:20;;;;;;;5.07;3.20;;;;;;;;;;10275707;28;20041;-63
2022/06/15 09:05:21;;;;;;;;;;;;;;;;;;10275221;28;20442;-62
2022/06/15 09:10:31;;;;;;;15.73;4.45;;;;;;;;;;10274913;28;20373;-63
2022/06/15 09:15:42;;;;;;;7.85;3.40;;;;;;;;;;10274658;28;20517;-63
2022/06/15 09:20:43;;;;;;;11.18;3.35;;;;;;;;;;10273386;28;20431;-62
2022/06/15 09:25:46;;;;;;;3.25;2.78;;;;;;;;;;10274510;28;20060;-62
2022/06/15 09:30:45;;;;;;;4.47;4.00;;;;;;;;;;10274664;28;20084;-62
2022/06/15 09:35:46;;;;;;;6.20;2.83;;;;;;;;;;10274715;28;20085;-62
2022/06/15 09:40:49;;;;;;;4.30;2.97;;;;;;;;;;10274566;28;20041;-63
2022/06/15 09:45:52;;;;;;;6.68;3.13;;;;;;;;;;10274484;28;20045;-62
2022/06/15 09:50:54;;;;;;;3.97;2.70;;;;;;;;;;10279269;28;20041;-63
2022/06/15 09:55:56;;;;;;;3.88;3.10;;;;;;;;;;10294993;28;20720;-63
2022/06/15 10:01:15;;;;;;;3.40;2.42;;;;;;;;;;10281331;28;20056;-63
2022/06/15 10:06:19;;;;;;;6.25;3.10;;;;;;;;;;10280305;28;20071;-63
2022/06/15 10:11:22;;;;;;;3.70;3.37;;;;;;;;;;10292050;28;20048;-64
2022/06/15 10:16:26;;;;;;;8.67;4.23;;;;;;;;;;10280968;28;20675;-62
2022/06/15 10:21:26;;;;;;;8.45;3.15;;;;;;;;;;10280793;28;20056;-63
2022/06/15 10:26:29;;;;;;;6.85;3.40;;;;;;;;;;10280524;28;20049;-62
2022/06/15 10:31:30;;;;;;;6.00;3.47;;;;;;;;;;10280326;28;20506;-62
2022/06/15 10:36:30;;;;;;;3.85;2.90;;;;;;;;;;10280214;28;20079;-62
2022/06/15 10:41:49;;;;;;;4.70;2.70;;;;;;;;;;10280371;28;20053;-63
2022/06/15 10:46:52;;;;;;;8.20;3.45;;;;;;;;;;10279206;28;20045;-62
2022/06/15 10:51:51;;;;;;;4.88;2.80;;;;;;;;;;10279812;28;20055;-63
2022/06/15 11:02:13;;;;;;;6.60;2.97;;;;;;;;;;10279017;28;20056;-62
2022/06/15 11:07:15;;;;;;;4.50;2.75;;;;;;;;;;10279180;28;20510;-63
2022/06/15 11:12:24;;;;;;;5.40;3.03;;;;;;;;;;10278365;28;20068;-64
2022/06/15 11:22:42;;;;;;;4.13;2.95;;;;;;;;;;10283534;28;20088;-63
2022/06/15 11:27:43;;;;;;;4.53;3.88;;;;;;;;;;10286994;28;20478;-62
2022/06/15 11:32:44;;;;;;;4.45;3.10;;;;;;;;;;10278287;28;20056;-62
2022/06/15 11:37:45;;;;;;;6.45;3.55;;;;;;;;;;10285757;28;20091;-62
2022/06/15 11:42:49;;;;;;;8.13;5.85;;;;;;;;;;10283180;28;20048;-62
2022/06/15 11:47:58;;;;;;;6.10;2.80;;;;;;;;;;10278066;28;20047;-63
2022/06/15 11:53:01;;;;;;;5.18;3.85;;;;;;;;;;10291632;28;20080;-63
2022/06/15 11:58:20;;;;;;;9.93;4.78;;;;;;;;;;10277765;28;20353;-62
2022/06/15 12:03:33;;;;;;;5.85;4.10;;;;;;;;;;10273050;28;20057;-63
2022/06/15 12:08:36;;;;;;;7.07;3.10;;;;;;;;;;10277334;28;20336;-63
2022/06/15 12:13:43;;;;;;;9.00;4.00;;;;;;;;;;10276250;28;20572;-63
2022/06/15 12:18:49;;;;;;;11.90;5.78;;;;;;;;;;10276938;28;20045;-63
2022/06/15 12:23:56;;;;;;;4.75;3.42;;;;;;;;;;10275189;28;20064;-62
2022/06/15 12:29:01;;;;;;;5.75;3.50;;;;;;;;;;10275666;28;20041;-63
2022/06/15 12:34:10;;;;;;;5.95;3.78;;;;;;;;;;10276589;28;20088;-63
2022/06/15 12:39:11;;;;;;;8.32;4.10;;;;;;;;;;10276464;28;20041;-62
2022/06/15 12:44:16;;;;;;;6.57;3.70;;;;;;;;;;10276468;28;20045;-63
2022/06/15 12:49:25;;;;;;;5.28;2.97;;;;;;;;;;10275117;28;20487;-63
2022/06/15 12:54:28;;;;;;;5.95;3.65;;;;;;;;;;10274495;28;20068;-63
2022/06/15 12:59:43;;;;;;;3.90;2.50;;;;;;;;;;10275032;28;20434;-62
2022/06/15 13:04:48;;;;;;;7.65;4.32;;;;;;;;;;10275636;28;20056;-63
2022/06/15 13:10:11;;;;;;;5.55;3.30;;;;;;;;;;10280420;28;20107;-63
2022/06/15 13:15:18;;;;;;;7.43;2.72;;;;;;;;;;10263843;28;20080;-63
2022/06/15 13:20:17;;;;;;;4.10;3.00;;;;;;;;;;10274524;28;20045;-63
2022/06/15 13:25:19;;;;;;;7.72;3.80;;;;;;;;;;10302122;28;20053;-62
2022/06/15 13:30:23;;;;;;;4.50;3.20;;;;;;;;;;10281629;28;20045;-63
2022/06/15 13:35:25;;;;;;;5.20;3.42;;;;;;;;;;10281566;28;20092;-63
2022/06/15 13:40:23;;;;;;;5.03;4.18;;;;;;;;;;10281856;28;20056;-62
2022/06/15 13:45:37;;;;;;;4.00;2.78;;;;;;;;;;10282272;28;20053;-63
2022/06/15 13:50:42;;;;;;;4.90;4.40;;;;;;;;;;10281656;28;20056;-63
2022/06/15 13:55:49;;;;;;;5.15;2.60;;;;;;;;;;10281898;28;20447;-63
2022/06/15 14:00:51;;;;;;;3.80;3.05;;;;;;;;;;10281505;28;20052;-63
2022/06/15 14:05:56;;;;;;;7.70;4.32;;;;;;;;;;10281052;28;20136;-62
2022/06/15 14:11:03;;;;;;;4.10;2.60;;;;;;;;;;10281002;28;20053;-62
2022/06/15 14:16:18;;;;;;;3.60;2.50;;;;;;;;;;10281863;28;20076;-62
2022/06/15 14:21:20;;;;;;;4.82;3.47;;;;;;;;;;10296515;28;20418;-63
2022/06/15 14:26:20;;;;;;;4.45;3.33;;;;;;;;;;10280223;28;20430;-63
2022/06/15 14:31:19;;;;;;;7.60;4.60;;;;;;;;;;10280398;28;20072;-63
2022/06/15 14:36:20;;;;;;;9.60;3.85;;;;;;;;;;10279647;28;20083;-63
2022/06/15 14:41:20;;;;;;;10.75;6.35;;;;;;;;;;10293430;28;20099;-64
2022/06/15 14:46:20;;;;;;;9.75;5.07;;;;;;;;;;10279573;28;20418;-64
2022/06/15 14:51:22;;;;;;;7.13;4.18;;;;;;;;;;10279376;28;20041;-63
2022/06/15 14:56:20;;;;;;;10.15;4.30;;;;;;;;;;10279025;28;20137;-63
2022/06/15 15:01:19;;;;;;;9.32;4.03;;;;;;;;;;10279755;28;20041;-63
2022/06/15 15:06:18;;;;;;;6.07;3.53;;;;;;;;;;10279488;28;20052;-63
2022/06/15 15:11:30;;;;;;;8.38;4.10;;;;;;;;;;10278903;28;20077;-64
2022/06/15 15:16:30;;;;;;;3.72;2.63;;;;;;;;;;10278693;28;20080;-62
2022/06/15 15:21:31;;;;;;;5.63;3.83;;;;;;;;;;10278574;28;20072;-63
2022/06/15 15:26:33;;;;;;;7.32;3.20;;;;;;;;;;10278215;28;20052;-63
2022/06/15 15:42:09;;;;;;;7.85;4.30;;;;;;;;;;10278151;28;20072;-63
2022/06/15 15:47:09;;;;;;;8.45;2.88;;;;;;;;;;10277868;28;20053;-63
2022/06/15 15:52:09;;;;;;;6.15;2.78;;;;;;;;;;10277656;28;20052;-63
2022/06/15 15:57:11;;;;;;;4.22;2.60;;;;;;;;;;10277316;28;20518;-62
2022/06/15 16:02:10;;;;;;;6.28;2.72;;;;;;;;;;10277852;28;20115;-63
2022/06/15 16:07:11;;;;;;;7.07;3.00;;;;;;;;;;10276774;28;20052;-63
2022/06/15 16:12:11;;;;;;;4.35;3.05;;;;;;;;;;10275860;28;20049;-63
2022/06/15 16:17:10;;;;;;;6.75;3.70;;;;;;;;;;10276560;28;20068;-63
2022/06/15 16:22:09;;;;;;;3.38;2.92;;;;;;;;;;10275859;28;20059;-63
2022/06/15 16:27:08;;;;;;;6.53;4.75;;;;;;;;;;10276954;28;20053;-63
2022/06/15 16:32:09;;;;;;;4.93;2.80;;;;;;;;;;10275967;28;20049;-64
2022/06/15 16:37:08;;;;;;;3.22;2.83;;;;;;;;;;10276498;28;20077;-63
2022/06/15 16:42:07;;;;;;;5.80;3.22;;;;;;;;;;10276090;28;20036;-63
2022/06/15 16:47:08;;;;;;;7.57;3.35;;;;;;;;;;10275583;28;20052;-62
2022/06/15 16:52:13;;;;;;;7.47;3.15;;;;;;;;;;10275547;28;20072;-62
2022/06/15 16:57:15;;;;;;;5.63;2.42;;;;;;;;;;10274992;28;20081;-61
2022/06/15 17:02:15;;;;;;;5.03;4.18;;;;;;;;;;10283567;28;20049;-62
2022/06/15 17:07:15;;;;;;;4.82;3.17;;;;;;;;;;10296888;28;20068;-62
2022/06/15 17:12:14;;;;;;;4.53;3.35;;;;;;;;;;10284030;28;20128;-62
2022/06/15 17:17:13;;;;;;;3.83;2.72;;;;;;;;;;10283313;28;20079;-63
2022/06/15 17:22:13;;;;;;;4.03;2.90;;;;;;;;;;10282753;28;20084;-64
2022/06/15 17:27:31;;;;;;;7.80;3.78;;;;;;;;;;10283584;28;20064;-63
2022/06/15 17:32:30;;;;;;;10.73;5.00;;;;;;;;;;10282878;28;20060;-63
2022/06/15 17:37:30;;;;;;;7.78;4.43;;;;;;;;;;10282551;28;20530;-62
2022/06/15 17:42:28;;;;;;;6.63;3.90;;;;;;;;;;10282343;28;20048;-62
2022/06/15 17:47:27;;;;;;;8.38;3.03;;;;;;;;;;10283131;28;20045;-62
2022/06/15 17:52:25;;;;;;;6.90;3.88;;;;;;;;;;10282426;28;20060;-62
2022/06/15 17:57:25;;;;;;;10.70;3.45;;;;;;;;;;10282421;28;20077;-62
2022/06/15 18:02:23;;;;;;;10.75;3.83;;;;;;;;;;10281610;28;20087;-62
2022/06/15 18:07:22;;;;;;;6.22;3.83;;;;;;;;;;10282485;28;20414;-61
2022/06/15 18:12:20;;;;;;;13.52;3.60;;;;;;;;;;10292474;28;20486;-62
2022/06/15 18:17:21;;;;;;;7.32;3.85;;;;;;;;;;10280993;28;20076;-62
2022/06/15 18:22:20;;;;;;;11.48;3.90;;;;;;;;;;10280760;28;20053;-62
2022/06/15 18:27:19;;;;;;;6.05;2.88;;;;;;;;;;10280589;28;20072;-62
2022/06/15 18:32:19;;;;;;;11.80;4.40;;;;;;;;;;10280391;28;20402;-62
2022/06/15 18:37:20;;;;;;;10.85;4.18;;;;;;;;;;10280297;28;20083;-63
2022/06/15 18:42:18;;;;;;;4.32;3.42;;;;;;;;;;10280341;28;20056;-63
2022/06/15 18:52:33;;;;;;;9.63;3.83;;;;;;;;;;10279183;28;20498;-63
2022/06/15 18:57:32;;;;;;;6.65;2.83;;;;;;;;;;10279606;28;20069;-63
2022/06/15 19:02:36;;;;;;;4.18;3.05;;;;;;;;;;10279482;28;20388;-61
2022/06/15 19:07:37;;;;;;;9.55;3.17;;;;;;;;;;10279666;28;20068;-62
2022/06/15 19:12:35;;;;;;;7.10;3.28;;;;;;;;;;10279575;28;20057;-62
2022/06/15 19:17:34;;;;;;;4.43;3.13;;;;;;;;;;10278706;28;20083;-60
2022/06/15 19:22:33;;;;;;;4.97;3.13;;;;;;;;;;10278581;28;20083;-62
2022/06/15 19:27:33;;;;;;;3.83;3.38;;;;;;;;;;10278584;28;20056;-63
2022/06/15 19:32:34;;;;;;;13.20;5.20;;;;;;;;;;10278798;28;20057;-59
2022/06/15 19:37:33;;;;;;;5.47;4.10;;;;;;;;;;10277577;28;20076;-62
2022/06/15 19:42:33;;;;;;;9.68;4.07;;;;;;;;;;10277575;28;20095;-63
2022/06/15 19:47:31;;;;;;;3.53;2.75;;;;;;;;;;10288496;28;20040;-62
2022/06/15 19:52:30;;;;;;;5.20;3.13;;;;;;;;;;10284733;28;20491;-62
2022/06/15 19:57:28;;;;;;;3.75;2.80;;;;;;;;;;10277269;28;20512;-62
2022/06/15 20:02:28;;;;;;;4.13;3.63;;;;;;;;;;10275049;28;20466;-62
2022/06/15 20:07:26;;;;;;;15.77;3.50;;;;;;;;;;10276586;28;20506;-62
2022/06/15 20:12:24;;;;;;;3.58;2.60;;;;;;;;;;10276908;28;20047;-61
2022/06/15 20:17:24;;;;;;;4.47;2.55;;;;;;;;;;10274356;28;20079;-61
2022/06/15 20:22:26;;;;;;;7.15;2.90;;;;;;;;;;10272433;28;20081;-62
2022/06/15 20:27:25;;;;;;;3.35;2.80;;;;;;;;;;10272437;28;20088;-62
2022/06/15 20:32:23;;;;;;;4.50;2.58;;;;;;;;;;10271300;28;20060;-62
2022/06/15 20:37:22;;;;;;;4.90;3.38;;;;;;;;;;10272926;28;20107;-62
2022/06/15 20:42:23;;;;;;;4.03;2.70;;;;;;;;;;10276105;28;20091;-61
2022/06/15 20:47:42;;;;;;;7.38;3.80;;;;;;;;;;10289415;28;20490;-61
2022/06/15 20:52:40;;;;;;;4.75;2.60;;;;;;;;;;10275432;28;20561;-62
2022/06/15 20:57:40;;;;;;;5.95;2.95;;;;;;;;;;10275718;28;20084;-60
2022/06/15 21:02:38;;;;;;;3.78;2.20;;;;;;;;;;10275726;28;20049;-61
2022/06/15 21:07:36;;;;;;;3.17;2.85;;;;;;;;;;10274643;28;20051;-62
2022/06/15 21:17:52;;;;;;;4.68;2.67;;;;;;;;;;10275264;28;20088;-62
2022/06/15 21:22:52;;;;;;;3.38;3.08;;;;;;;;;;10274712;28;20057;-61
2022/06/15 21:27:51;;;;;;;8.55;2.97;;;;;;;;;;10275108;28;20492;-61
2022/06/15 21:32:51;;;;;;;5.28;2.92;;;;;;;;;;10275345;28;20052;-61
2022/06/15 21:37:54;;;;;;;3.55;2.80;;;;;;;;;;10275011;28;20087;-61
2022/06/15 21:42:53;;;;;;;6.43;3.00;;;;;;;;;;10275279;28;20041;-61
2022/06/15 21:47:52;;;;;;;2.95;2.67;;;;;;;;;;10281946;28;20080;-61
2022/06/15 21:52:54;;;;;;;3.95;3.55;;;;;;;;;;10281048;28;20443;-61
2022/06/15 21:57:52;;;;;;;5.50;2.45;;;;;;;;;;10282609;28;20084;-62
2022/06/15 22:02:51;;;;;;;4.68;3.05;;;;;;;;;;10288832;28;20064;-61
2022/06/15 22:07:49;;;;;;;3.88;2.85;;;;;;;;;;10322369;28;20045;-63
2022/06/15 22:12:49;;;;;;;4.15;2.92;;;;;;;;;;10322274;28;20052;-61
2022/06/15 22:17:48;;;;;;;5.30;2.47;;;;;;;;;;10321745;28;20056;-61
2022/06/15 22:22:46;;;;;;;5.72;2.90;;;;;;;;;;10321814;28;20057;-62
2022/06/15 22:27:45;;;;;;;6.65;2.67;;;;;;;;;;10321613;28;20052;-62
2022/06/15 22:32:45;;;;;;;4.72;3.00;;;;;;;;;;10322033;28;20543;-63
2022/06/15 22:37:43;;;;;;;6.55;2.90;;;;;;;;;;10321262;28;20521;-62
2022/06/15 22:42:43;;;;;;;4.30;3.13;;;;;;;;;;10321004;28;20059;-60
2022/06/15 22:47:41;;;;;;;5.45;3.20;;;;;;;;;;10320817;28;20055;-62
2022/06/15 22:52:42;;;;;;;6.07;2.90;;;;;;;;;;10319407;28;20044;-61
2022/06/15 22:57:40;;;;;;;6.65;3.17;;;;;;;;;;10319758;28;20072;-62
2022/06/15 23:02:39;;;;;;;5.93;2.75;;;;;;;;;;10320276;28;20088;-61
2022/06/15 23:07:37;;;;;;;8.57;3.38;;;;;;;;;;10319490;28;20079;-62
2022/06/15 23:12:37;;;;;;;4.00;2.83;;;;;;;;;;10298148;28;20045;-62
2022/06/15 23:17:36;;;;;;;4.85;3.35;;;;;;;;;;10277503;28;20075;-62
2022/06/15 23:22:34;;;;;;;4.35;3.72;;;;;;;;;;10280228;28;20052;-62
2022/06/15 23:27:32;;;;;;;2.67;2.47;;;;;;;;;;10289939;28;20068;-62
2022/06/15 23:32:32;;;;;;;5.32;2.92;;;;;;;;;;10278560;28;20505;-62
2022/06/15 23:37:33;;;;;;;3.92;2.80;;;;;;;;;;10280744;28;20072;-63
2022/06/15 23:42:37;;;;;;;6.65;3.10;;;;;;;;;;10308324;28;20505;-62
2022/06/15 23:47:37;;;;;;;7.30;2.65;;;;;;;;;;10318343;28;20154;-63
2022/06/15 23:52:35;;;;;;;5.07;2.95;;;;;;;;;;10318370;28;20071;-62
2022/06/15 23:57:35;;;;;;;4.00;2.65;;;;;;;;;;10318013;28;20048;-61
